Time;durP1;ratioP1;P1;durP2;ratioP2;P2;SDS_P1;SDS_P2;PMS_P1;PMS_P2;Temp;Humidity;BMP_temperature;BMP_pressure;BME280_temperature;BME280_humidity;BME280_pressure;Samples;Min_cycle;Max_cycle;Signal;HPM_P1;HPM_P2
2023/07/02 00:02:19;;;;;;;9.30;3.70;;;;;;;;;;106594;1275;22520;-79
2023/07/02 00:04:49;;;;;;;9.60;3.80;;;;;;;;;;106784;1262;22568;-78
2023/07/02 00:07:19;;;;;;;8.70;3.80;;;;;;;;;;106697;1269;22520;-81
2023/07/02 00:09:47;;;;;;;7.60;3.10;;;;;;;;;;106890;1272;24338;-80
2023/07/02 00:12:14;;;;;;;7.90;3.30;;;;;;;;;;106875;1253;24347;-83
2023/07/02 00:14:44;;;;;;;8.80;3.20;;;;;;;;;;106951;1257;25226;-79
2023/07/02 00:17:13;;;;;;;9.90;3.10;;;;;;;;;;106924;1270;25274;-81
2023/07/02 00:19:46;;;;;;;6.30;2.50;;;;;;;;;;106460;1275;22530;-82
2023/07/02 00:22:15;;;;;;;6.40;2.50;;;;;;;;;;107000;1267;22520;-82
2023/07/02 00:24:55;;;;;;;7.20;2.40;;;;;;;;;;107202;1257;24186;-80
2023/07/02 00:27:22;;;;;;;6.10;2.20;;;;;;;;;;107010;1253;22581;-80
2023/07/02 00:29:55;;;;;;;6.40;2.30;;;;;;;;;;106921;1272;25306;-85
2023/07/02 00:32:22;;;;;;;5.20;2.00;;;;;;;;;;107060;1267;22614;-81
2023/07/02 00:34:51;;;;;;;5.90;1.90;;;;;;;;;;107022;1268;22602;-85
2023/07/02 00:44:40;;;;;;;5.70;1.90;;;;;;;;;;104077;1292;547824;-79
2023/07/02 00:47:08;;;;;;;5.80;1.90;;;;;;;;;;106350;1284;25381;-83
2023/07/02 00:49:34;;;;;;;5.90;1.70;;;;;;;;;;106156;1285;24374;-79
2023/07/02 00:52:04;;;;;;;4.20;1.60;;;;;;;;;;106127;1287;22540;-79
2023/07/02 00:54:31;;;;;;;4.70;1.80;;;;;;;;;;106059;1282;24220;-86
2023/07/02 00:57:03;;;;;;;6.30;2.20;;;;;;;;;;103745;1286;3210917;-80
2023/07/02 00:59:30;;;;;;;5.80;1.70;;;;;;;;;;109795;1281;22147;-79
2023/07/02 01:01:57;;;;;;;6.20;1.90;;;;;;;;;;109864;1286;22424;-79
2023/07/02 01:04:27;;;;;;;4.70;1.80;;;;;;;;;;109950;1263;22234;-80
2023/07/02 01:06:57;;;;;;;5.90;1.90;;;;;;;;;;109917;1277;22464;-81
2023/07/02 01:09:27;;;;;;;4.90;1.90;;;;;;;;;;110048;1276;22292;-81
2023/07/02 01:11:54;;;;;;;4.30;1.80;;;;;;;;;;110016;1281;22750;-81
2023/07/02 01:14:24;;;;;;;5.40;1.80;;;;;;;;;;109955;1268;22342;-78
2023/07/02 01:16:52;;;;;;;4.60;1.90;;;;;;;;;;109993;1282;22154;-78
2023/07/02 01:19:33;;;;;;;3.70;1.50;;;;;;;;;;110048;1282;22131;-78
2023/07/02 01:22:00;;;;;;;6.70;1.70;;;;;;;;;;110052;1282;23134;-76
2023/07/02 01:24:26;;;;;;;4.10;1.70;;;;;;;;;;110076;1263;22127;-77
2023/07/02 01:26:53;;;;;;;4.60;1.60;;;;;;;;;;110067;1279;22782;-78
2023/07/02 01:29:20;;;;;;;3.60;1.50;;;;;;;;;;110070;1281;22242;-78
2023/07/02 01:31:46;;;;;;;6.40;1.70;;;;;;;;;;110014;1281;22228;-78
2023/07/02 01:34:14;;;;;;;5.50;1.90;;;;;;;;;;110026;1260;22235;-78
2023/07/02 01:36:40;;;;;;;4.80;1.60;;;;;;;;;;110152;1275;22906;-79
2023/07/02 01:39:09;;;;;;;4.40;1.70;;;;;;;;;;110242;1278;22966;-78
2023/07/02 01:41:44;;;;;;;4.60;1.40;;;;;;;;;;110222;1272;22462;-82
2023/07/02 01:44:10;;;;;;;5.10;1.60;;;;;;;;;;110108;1279;22331;-80
2023/07/02 01:46:37;;;;;;;3.00;1.30;;;;;;;;;;110178;1262;22460;-80
2023/07/02 01:49:03;;;;;;;4.60;1.50;;;;;;;;;;110648;1272;22352;-79
2023/07/02 01:51:29;;;;;;;5.30;1.20;;;;;;;;;;110646;1274;22114;-80
2023/07/02 01:53:55;;;;;;;5.00;1.40;;;;;;;;;;110620;1274;22117;-79
2023/07/02 01:56:21;;;;;;;4.60;1.40;;;;;;;;;;110776;1259;22116;-79
2023/07/02 01:58:47;;;;;;;4.10;1.50;;;;;;;;;;110489;1275;22085;-79
2023/07/02 02:01:13;;;;;;;4.60;1.30;;;;;;;;;;110359;1275;22136;-78
2023/07/02 02:03:39;;;;;;;3.90;1.50;;;;;;;;;;110580;1272;22136;-77
2023/07/02 02:06:05;;;;;;;6.30;1.50;;;;;;;;;;110765;1257;22143;-79
2023/07/02 02:08:31;;;;;;;5.20;1.50;;;;;;;;;;110634;1274;22096;-79
2023/07/02 02:10:57;;;;;;;4.20;1.40;;;;;;;;;;110655;1274;22109;-79
2023/07/02 02:13:23;;;;;;;4.20;1.60;;;;;;;;;;110507;1274;22869;-79
2023/07/02 02:15:52;;;;;;;4.90;1.40;;;;;;;;;;110678;1258;22848;-79
2023/07/02 02:18:18;;;;;;;5.50;1.60;;;;;;;;;;110461;1275;22125;-80
2023/07/02 02:20:44;;;;;;;6.70;1.90;;;;;;;;;;110697;1272;22122;-79
2023/07/02 02:23:10;;;;;;;4.00;1.60;;;;;;;;;;110461;1275;22987;-80
2023/07/02 02:25:37;;;;;;;4.50;1.40;;;;;;;;;;110516;1259;22119;-79
2023/07/02 02:28:03;;;;;;;3.90;1.30;;;;;;;;;;110687;1274;23163;-78
2023/07/02 02:30:30;;;;;;;5.90;1.60;;;;;;;;;;110669;1272;22072;-79
2023/07/02 02:32:56;;;;;;;6.20;1.50;;;;;;;;;;110632;1274;22517;-79
2023/07/02 02:35:22;;;;;;;3.80;1.40;;;;;;;;;;110517;1254;23428;-79
2023/07/02 02:37:49;;;;;;;4.90;1.50;;;;;;;;;;110344;1272;22013;-79
2023/07/02 02:40:15;;;;;;;3.50;1.30;;;;;;;;;;110650;1275;22020;-79
2023/07/02 02:42:42;;;;;;;4.70;1.30;;;;;;;;;;110666;1275;22158;-79
2023/07/02 02:45:08;;;;;;;5.50;1.70;;;;;;;;;;110330;1275;22017;-79
2023/07/02 02:47:34;;;;;;;3.40;1.50;;;;;;;;;;110853;1259;22335;-80
2023/07/02 02:50:00;;;;;;;3.30;1.30;;;;;;;;;;110531;1274;22348;-78
2023/07/02 02:52:26;;;;;;;2.80;1.20;;;;;;;;;;110662;1274;22307;-79
2023/07/02 02:54:55;;;;;;;3.80;1.20;;;;;;;;;;110679;1274;22119;-78
2023/07/02 02:57:21;;;;;;;3.70;1.30;;;;;;;;;;110753;1258;22166;-78
2023/07/02 02:59:47;;;;;;;3.70;1.20;;;;;;;;;;110541;1275;22111;-79
2023/07/02 03:02:13;;;;;;;5.00;1.30;;;;;;;;;;110482;1275;22886;-79
2023/07/02 03:04:41;;;;;;;3.20;1.20;;;;;;;;;;110375;1275;22136;-78
2023/07/02 03:07:09;;;;;;;2.40;1.10;;;;;;;;;;110442;1259;22143;-79
2023/07/02 03:09:36;;;;;;;3.50;1.30;;;;;;;;;;110539;1275;22120;-79
2023/07/02 03:12:02;;;;;;;3.90;1.20;;;;;;;;;;110538;1274;22980;-79
2023/07/02 03:14:28;;;;;;;2.50;1.20;;;;;;;;;;110631;1272;22878;-79
2023/07/02 03:16:54;;;;;;;3.10;1.20;;;;;;;;;;110635;1259;22160;-80
2023/07/02 03:19:20;;;;;;;3.20;1.10;;;;;;;;;;110565;1275;22111;-80
2023/07/02 03:21:46;;;;;;;3.20;1.30;;;;;;;;;;110531;1275;22102;-78
2023/07/02 03:24:13;;;;;;;2.70;1.10;;;;;;;;;;110382;1275;22104;-78
2023/07/02 03:26:39;;;;;;;3.10;1.20;;;;;;;;;;110541;1256;22143;-79
2023/07/02 03:29:06;;;;;;;3.50;1.20;;;;;;;;;;110504;1274;22148;-78
2023/07/02 03:31:32;;;;;;;5.50;1.10;;;;;;;;;;110503;1274;22284;-79
2023/07/02 03:33:59;;;;;;;5.30;1.30;;;;;;;;;;110655;1274;22108;-79
2023/07/02 03:36:25;;;;;;;4.10;1.20;;;;;;;;;;110637;1254;22384;-79
2023/07/02 03:38:52;;;;;;;3.30;1.20;;;;;;;;;;110364;1275;22120;-78
2023/07/02 03:41:18;;;;;;;4.10;1.40;;;;;;;;;;110552;1275;22987;-79
2023/07/02 03:43:44;;;;;;;3.70;1.20;;;;;;;;;;110359;1275;22088;-79
2023/07/02 03:46:10;;;;;;;2.40;1.10;;;;;;;;;;110508;1275;22224;-78
2023/07/02 03:48:36;;;;;;;2.90;1.10;;;;;;;;;;110743;1257;22162;-79
2023/07/02 03:51:03;;;;;;;4.20;1.40;;;;;;;;;;110347;1274;22286;-79
2023/07/02 03:53:29;;;;;;;4.00;1.00;;;;;;;;;;110514;1275;22133;-79
2023/07/02 03:55:55;;;;;;;2.80;1.00;;;;;;;;;;110622;1275;23101;-81
2023/07/02 03:58:21;;;;;;;3.00;1.20;;;;;;;;;;110726;1259;22188;-79
2023/07/02 04:00:49;;;;;;;3.00;1.20;;;;;;;;;;110470;1274;22078;-79
2023/07/02 04:03:16;;;;;;;4.20;1.30;;;;;;;;;;110349;1276;22265;-78
2023/07/02 04:05:42;;;;;;;2.20;1.00;;;;;;;;;;110347;1276;22803;-79
2023/07/02 04:08:08;;;;;;;3.40;1.30;;;;;;;;;;110787;1260;22212;-79
2023/07/02 04:10:34;;;;;;;3.40;1.30;;;;;;;;;;110686;1274;22944;-80
2023/07/02 04:13:00;;;;;;;2.50;1.10;;;;;;;;;;110648;1272;22186;-79
2023/07/02 04:15:34;;;;;;;3.40;1.40;;;;;;;;;;110643;1275;22147;-78
2023/07/02 04:18:00;;;;;;;2.50;1.00;;;;;;;;;;110769;1256;22154;-78
2023/07/02 04:20:28;;;;;;;3.40;1.40;;;;;;;;;;110365;1276;22845;-79
2023/07/02 04:22:54;;;;;;;3.20;1.30;;;;;;;;;;110326;1275;22936;-79
2023/07/02 04:25:20;;;;;;;2.90;1.20;;;;;;;;;;110333;1276;22117;-79
2023/07/02 04:27:47;;;;;;;2.20;1.20;;;;;;;;;;110423;1251;22884;-79
2023/07/02 04:30:14;;;;;;;2.90;1.20;;;;;;;;;;110640;1275;22118;-79
2023/07/02 04:32:40;;;;;;;4.00;1.60;;;;;;;;;;110654;1275;22116;-80
2023/07/02 04:35:07;;;;;;;3.60;1.20;;;;;;;;;;110644;1274;22129;-79
2023/07/02 04:37:33;;;;;;;4.00;1.40;;;;;;;;;;110478;1274;23093;-80
2023/07/02 04:40:00;;;;;;;4.00;1.20;;;;;;;;;;110216;1262;22105;-79
2023/07/02 04:42:27;;;;;;;2.80;1.10;;;;;;;;;;110336;1276;22150;-79
2023/07/02 04:44:54;;;;;;;3.50;1.40;;;;;;;;;;110456;1275;22109;-79
2023/07/02 04:47:20;;;;;;;4.00;1.40;;;;;;;;;;110468;1276;22785;-79
2023/07/02 04:49:46;;;;;;;3.10;1.30;;;;;;;;;;110512;1259;22104;-79
2023/07/02 04:52:20;;;;;;;3.30;1.40;;;;;;;;;;110473;1276;22888;-80
2023/07/02 04:54:46;;;;;;;5.00;1.30;;;;;;;;;;110280;1276;22896;-79
2023/07/02 04:57:14;;;;;;;2.80;1.10;;;;;;;;;;110349;1276;22139;-79
2023/07/02 04:59:52;;;;;;;3.30;1.30;;;;;;;;;;110753;1257;22125;-79
2023/07/02 05:02:27;;;;;;;3.50;1.30;;;;;;;;;;110477;1277;22218;-79
2023/07/02 05:04:53;;;;;;;3.60;1.40;;;;;;;;;;110430;1278;22134;-79
2023/07/02 05:07:19;;;;;;;3.10;1.30;;;;;;;;;;110498;1277;22133;-79
2023/07/02 05:09:46;;;;;;;4.30;1.40;;;;;;;;;;110779;1254;22126;-80
2023/07/02 05:12:12;;;;;;;3.60;1.30;;;;;;;;;;110465;1276;22332;-80
2023/07/02 05:14:38;;;;;;;2.40;1.10;;;;;;;;;;110486;1276;22114;-79
2023/07/02 05:17:04;;;;;;;2.60;1.20;;;;;;;;;;110263;1276;22328;-80
2023/07/02 05:19:44;;;;;;;3.00;1.30;;;;;;;;;;110402;1260;22228;-80
2023/07/02 05:22:13;;;;;;;3.90;1.30;;;;;;;;;;110329;1275;22822;-78
2023/07/02 05:24:40;;;;;;;3.50;1.40;;;;;;;;;;110435;1277;22124;-79
2023/07/02 05:27:06;;;;;;;3.20;1.30;;;;;;;;;;110165;1276;22127;-79
2023/07/02 05:29:32;;;;;;;3.70;1.30;;;;;;;;;;110433;1260;22165;-79
2023/07/02 05:31:58;;;;;;;2.40;1.00;;;;;;;;;;110449;1276;22184;-79
2023/07/02 05:34:24;;;;;;;3.00;1.40;;;;;;;;;;110415;1276;22153;-79
2023/07/02 05:36:50;;;;;;;2.90;1.50;;;;;;;;;;110695;1276;21957;-79
2023/07/02 05:39:17;;;;;;;3.90;1.80;;;;;;;;;;110541;1260;22156;-78
2023/07/02 05:41:43;;;;;;;4.70;1.50;;;;;;;;;;110410;1276;22113;-77
2023/07/02 05:44:12;;;;;;;3.00;1.30;;;;;;;;;;110424;1276;22398;-79
2023/07/02 05:46:39;;;;;;;4.10;1.40;;;;;;;;;;110270;1276;22124;-79
2023/07/02 05:49:06;;;;;;;4.70;1.40;;;;;;;;;;110247;1254;22822;-79
2023/07/02 05:51:32;;;;;;;3.10;1.40;;;;;;;;;;110181;1276;22141;-79
2023/07/02 05:54:01;;;;;;;4.00;1.50;;;;;;;;;;110417;1273;22123;-79
2023/07/02 05:56:27;;;;;;;3.50;1.30;;;;;;;;;;110632;1276;22115;-79
2023/07/02 05:58:53;;;;;;;3.80;1.30;;;;;;;;;;110396;1276;22137;-81
2023/07/02 06:01:19;;;;;;;2.30;1.10;;;;;;;;;;110859;1260;22013;-79
2023/07/02 06:03:52;;;;;;;2.90;1.40;;;;;;;;;;110179;1277;22331;-79
2023/07/02 06:06:18;;;;;;;3.80;1.50;;;;;;;;;;110291;1278;22936;-79
2023/07/02 06:08:45;;;;;;;3.20;1.30;;;;;;;;;;110302;1278;22122;-79
2023/07/02 06:11:11;;;;;;;3.30;1.30;;;;;;;;;;110448;1258;22211;-80
2023/07/02 06:13:38;;;;;;;2.60;1.20;;;;;;;;;;110439;1263;22168;-81
2023/07/02 06:16:04;;;;;;;2.70;1.20;;;;;;;;;;110269;1276;22843;-80
2023/07/02 06:18:33;;;;;;;2.20;1.20;;;;;;;;;;110637;1276;22879;-80
2023/07/02 06:20:59;;;;;;;2.40;1.30;;;;;;;;;;110488;1260;21998;-80
2023/07/02 06:23:29;;;;;;;2.00;0.90;;;;;;;;;;110171;1278;22009;-84
2023/07/02 06:25:58;;;;;;;2.40;1.30;;;;;;;;;;110307;1277;21977;-79
2023/07/02 06:28:25;;;;;;;2.60;1.30;;;;;;;;;;110169;1278;22115;-79
2023/07/02 06:30:52;;;;;;;2.50;1.20;;;;;;;;;;110535;1255;22208;-79
2023/07/02 06:33:18;;;;;;;2.60;1.10;;;;;;;;;;110405;1276;22129;-79
2023/07/02 06:35:45;;;;;;;4.00;1.00;;;;;;;;;;110612;1276;22105;-79
2023/07/02 06:38:11;;;;;;;2.20;1.20;;;;;;;;;;110631;1276;22964;-79
2023/07/02 06:40:37;;;;;;;3.20;1.50;;;;;;;;;;110435;1257;22131;-79
2023/07/02 06:43:04;;;;;;;2.40;1.10;;;;;;;;;;110313;1278;22323;-80
2023/07/02 06:45:30;;;;;;;5.20;1.20;;;;;;;;;;110449;1265;22084;-79
2023/07/02 06:47:57;;;;;;;2.50;1.10;;;;;;;;;;110134;1278;22694;-77
2023/07/02 06:50:24;;;;;;;3.60;1.50;;;;;;;;;;110191;1254;22784;-79
2023/07/02 06:52:50;;;;;;;3.00;1.60;;;;;;;;;;110197;1277;22189;-79
2023/07/02 06:55:18;;;;;;;4.50;1.40;;;;;;;;;;110351;1277;22126;-79
2023/07/02 06:57:45;;;;;;;3.20;1.40;;;;;;;;;;110331;1277;22123;-80
2023/07/02 07:00:13;;;;;;;2.70;1.40;;;;;;;;;;110457;1277;22141;-79
2023/07/02 07:02:42;;;;;;;2.40;1.30;;;;;;;;;;110592;1260;22188;-78
2023/07/02 07:05:09;;;;;;;3.90;1.60;;;;;;;;;;110326;1278;22216;-79
2023/07/02 07:07:36;;;;;;;4.10;1.40;;;;;;;;;;110198;1278;22171;-79
2023/07/02 07:10:03;;;;;;;4.10;1.70;;;;;;;;;;110087;1278;22126;-79
2023/07/02 07:12:30;;;;;;;4.20;1.70;;;;;;;;;;110702;1260;22134;-79
2023/07/02 07:14:57;;;;;;;3.10;1.50;;;;;;;;;;110143;1277;22442;-76
2023/07/02 07:17:24;;;;;;;3.60;1.70;;;;;;;;;;110347;1277;22127;-79
2023/07/02 07:19:51;;;;;;;3.60;1.40;;;;;;;;;;110343;1277;22973;-79
2023/07/02 07:22:18;;;;;;;2.20;1.20;;;;;;;;;;110631;1257;22129;-78
2023/07/02 07:24:46;;;;;;;5.60;1.50;;;;;;;;;;110203;1278;22187;-78
2023/07/02 07:27:13;;;;;;;4.30;1.80;;;;;;;;;;110424;1278;22296;-78
2023/07/02 07:29:39;;;;;;;3.30;1.40;;;;;;;;;;110393;1278;22125;-78
2023/07/02 07:32:06;;;;;;;4.60;1.70;;;;;;;;;;110325;1258;22982;-77
2023/07/02 07:34:33;;;;;;;3.20;1.40;;;;;;;;;;110349;1277;22116;-79
2023/07/02 07:36:59;;;;;;;3.50;1.70;;;;;;;;;;110468;1277;22333;-79
2023/07/02 07:39:26;;;;;;;4.10;1.60;;;;;;;;;;110345;1277;22832;-78
2023/07/02 07:41:53;;;;;;;2.70;1.40;;;;;;;;;;110518;1261;22348;-79
2023/07/02 07:44:19;;;;;;;2.30;1.40;;;;;;;;;;110185;1278;22129;-79
2023/07/02 07:46:45;;;;;;;2.90;1.70;;;;;;;;;;110314;1263;22131;-79
2023/07/02 07:49:15;;;;;;;4.90;1.70;;;;;;;;;;110176;1276;22152;-78
2023/07/02 07:51:44;;;;;;;4.00;1.60;;;;;;;;;;110144;1254;22129;-76
2023/07/02 07:54:12;;;;;;;4.10;1.80;;;;;;;;;;110436;1277;22874;-79
2023/07/02 07:56:40;;;;;;;4.50;1.80;;;;;;;;;;110235;1278;22300;-78
2023/07/02 07:59:13;;;;;;;2.70;1.30;;;;;;;;;;110175;1278;22169;-80
2023/07/02 08:01:41;;;;;;;3.20;1.50;;;;;;;;;;110199;1278;22397;-76
2023/07/02 08:04:09;;;;;;;3.50;1.80;;;;;;;;;;110156;1263;22885;-77
2023/07/02 08:06:47;;;;;;;4.70;1.70;;;;;;;;;;110154;1278;22130;-79
2023/07/02 08:09:19;;;;;;;3.00;1.40;;;;;;;;;;110160;1278;22204;-79
2023/07/02 08:11:51;;;;;;;4.50;2.00;;;;;;;;;;110307;1278;22373;-81
2023/07/02 08:14:20;;;;;;;6.10;1.70;;;;;;;;;;110611;1270;22121;-79
2023/07/02 08:16:51;;;;;;;2.80;1.60;;;;;;;;;;110292;1277;22123;-80
2023/07/02 08:19:21;;;;;;;4.20;1.70;;;;;;;;;;110213;1278;22065;-79
2023/07/02 08:21:48;;;;;;;4.30;1.90;;;;;;;;;;110183;1277;22099;-81
2023/07/02 08:24:17;;;;;;;3.90;1.60;;;;;;;;;;110480;1272;22116;-81
2023/07/02 08:26:47;;;;;;;4.00;1.90;;;;;;;;;;110082;1276;22164;-79
2023/07/02 08:29:16;;;;;;;3.80;2.00;;;;;;;;;;110351;1276;22154;-80
2023/07/02 08:31:44;;;;;;;4.60;1.90;;;;;;;;;;110114;1278;21750;-80
2023/07/02 08:34:13;;;;;;;3.80;1.70;;;;;;;;;;110611;1270;22657;-80
2023/07/02 08:36:43;;;;;;;4.90;1.80;;;;;;;;;;110194;1274;22144;-80
2023/07/02 08:39:12;;;;;;;3.80;1.70;;;;;;;;;;110213;1277;22133;-80
2023/07/02 08:41:47;;;;;;;3.60;1.60;;;;;;;;;;110173;1277;22238;-80
2023/07/02 08:44:20;;;;;;;4.50;1.80;;;;;;;;;;110642;1256;22235;-79
2023/07/02 08:46:56;;;;;;;3.50;1.70;;;;;;;;;;110074;1278;22144;-80
2023/07/02 08:56:44;;;;;;;3.80;1.80;;;;;;;;;;104084;1290;548990;-87
2023/07/02 08:59:10;;;;;;;2.70;1.50;;;;;;;;;;106328;1285;22647;-85
2023/07/02 09:01:50;;;;;;;4.00;1.70;;;;;;;;;;106082;1288;23100;-83
2023/07/02 09:04:16;;;;;;;4.00;1.60;;;;;;;;;;106117;1288;25715;-82
2023/07/02 09:06:45;;;;;;;4.40;1.80;;;;;;;;;;106089;1288;22496;-85
2023/07/02 09:09:12;;;;;;;3.40;1.80;;;;;;;;;;103872;1285;3049576;-84
2023/07/02 09:11:49;;;;;;;4.40;1.90;;;;;;;;;;106137;1285;25403;-84
2023/07/02 09:14:31;;;;;;;4.40;2.00;;;;;;;;;;106230;1286;25291;-80
2023/07/02 09:17:04;;;;;;;6.00;2.10;;;;;;;;;;106740;1271;25391;-82
2023/07/02 09:19:31;;;;;;;3.60;1.70;;;;;;;;;;106798;1278;25470;-80
2023/07/02 09:22:03;;;;;;;3.60;1.80;;;;;;;;;;106806;1277;23867;-84
2023/07/02 09:24:31;;;;;;;4.70;1.90;;;;;;;;;;106633;1279;22649;-85
2023/07/02 09:27:01;;;;;;;4.00;1.70;;;;;;;;;;106861;1259;22547;-82
2023/07/02 09:29:31;;;;;;;4.40;2.10;;;;;;;;;;106816;1277;25448;-82
2023/07/02 09:31:59;;;;;;;5.00;2.30;;;;;;;;;;106854;1277;22576;-83
2023/07/02 09:34:32;;;;;;;4.40;1.80;;;;;;;;;;106944;1276;24215;-79
2023/07/02 09:36:59;;;;;;;5.80;2.00;;;;;;;;;;106843;1271;25500;-83
2023/07/02 09:39:30;;;;;;;4.10;1.50;;;;;;;;;;106813;1277;23883;-81
2023/07/02 09:41:57;;;;;;;4.50;1.60;;;;;;;;;;106892;1276;22900;-80
2023/07/02 09:44:28;;;;;;;3.80;1.70;;;;;;;;;;106952;1276;22540;-80
2023/07/02 09:47:10;;;;;;;4.20;2.00;;;;;;;;;;106860;1267;22782;-85
2023/07/02 09:49:49;;;;;;;3.00;1.60;;;;;;;;;;106827;1272;22531;-81
2023/07/02 09:52:18;;;;;;;4.20;2.00;;;;;;;;;;106904;1275;22534;-80
2023/07/02 09:54:45;;;;;;;5.40;2.40;;;;;;;;;;106888;1266;25481;-82
2023/07/02 09:57:26;;;;;;;4.70;1.90;;;;;;;;;;106730;1265;22902;-79
2023/07/02 10:11:35;;;;;;;3.70;1.50;;;;;;;;;;103729;1294;544965;-80
2023/07/02 10:14:02;;;;;;;4.10;1.70;;;;;;;;;;106063;1288;22652;-86
2023/07/02 10:16:31;;;;;;;4.00;1.90;;;;;;;;;;106100;1288;22558;-84
2023/07/02 10:19:15;;;;;;;4.90;2.10;;;;;;;;;;106256;1288;22504;-83
2023/07/02 10:21:49;;;;;;;3.50;1.50;;;;;;;;;;106169;1270;22555;-79
2023/07/02 10:24:23;;;;;;;4.40;1.70;;;;;;;;;;103417;1272;3605735;-84
2023/07/02 10:26:58;;;;;;;3.30;1.50;;;;;;;;;;106408;1285;25373;-81
2023/07/02 10:29:26;;;;;;;3.70;1.70;;;;;;;;;;106332;1285;25491;-83
2023/07/02 10:31:56;;;;;;;4.20;2.00;;;;;;;;;;106426;1267;22546;-82
2023/07/02 10:34:31;;;;;;;5.20;2.50;;;;;;;;;;106354;1284;24231;-83
2023/07/02 10:37:04;;;;;;;4.40;1.80;;;;;;;;;;106417;1285;22556;-84
2023/07/02 10:39:38;;;;;;;5.40;2.00;;;;;;;;;;106417;1286;24231;-79
2023/07/02 10:42:09;;;;;;;4.40;1.90;;;;;;;;;;106179;1279;22529;-80
2023/07/02 10:44:47;;;;;;;3.30;1.90;;;;;;;;;;106495;1286;22595;-84
2023/07/02 10:47:18;;;;;;;3.30;1.70;;;;;;;;;;106436;1280;22537;-81
2023/07/02 10:49:45;;;;;;;3.80;2.00;;;;;;;;;;106286;1286;22529;-80
2023/07/02 10:52:12;;;;;;;3.90;1.90;;;;;;;;;;106418;1267;24199;-86
2023/07/02 10:54:40;;;;;;;5.10;1.70;;;;;;;;;;106082;1287;25423;-84
2023/07/02 10:57:08;;;;;;;5.20;1.90;;;;;;;;;;106264;1281;22532;-83
2023/07/02 10:59:35;;;;;;;4.70;2.00;;;;;;;;;;106063;1288;25240;-84
2023/07/02 11:02:11;;;;;;;6.40;3.20;;;;;;;;;;109668;1270;22162;-77
2023/07/02 11:04:38;;;;;;;4.60;2.20;;;;;;;;;;109779;1287;22140;-79
2023/07/02 11:07:06;;;;;;;3.50;1.80;;;;;;;;;;109768;1288;22164;-80
2023/07/02 11:09:34;;;;;;;5.10;1.70;;;;;;;;;;109820;1287;21693;-79
2023/07/02 11:12:00;;;;;;;4.80;1.90;;;;;;;;;;109776;1269;23130;-80
2023/07/02 11:14:34;;;;;;;5.00;1.90;;;;;;;;;;109729;1288;22107;-78
2023/07/02 11:17:09;;;;;;;4.80;1.80;;;;;;;;;;109827;1288;23048;-79
2023/07/02 11:19:36;;;;;;;5.10;2.20;;;;;;;;;;109675;1286;22847;-82
2023/07/02 11:22:13;;;;;;;6.40;2.20;;;;;;;;;;109684;1268;22351;-80
2023/07/02 11:24:39;;;;;;;4.70;1.90;;;;;;;;;;109766;1288;22197;-80
2023/07/02 11:27:09;;;;;;;3.30;1.80;;;;;;;;;;109794;1288;23215;-81
2023/07/02 11:29:36;;;;;;;6.50;2.30;;;;;;;;;;109819;1287;22222;-82
2023/07/02 11:32:06;;;;;;;2.90;1.70;;;;;;;;;;109825;1266;22191;-80
2023/07/02 11:34:36;;;;;;;4.60;1.90;;;;;;;;;;109811;1288;22377;-81
2023/07/02 11:37:04;;;;;;;3.90;1.70;;;;;;;;;;109770;1288;22154;-81
2023/07/02 11:39:31;;;;;;;5.80;2.10;;;;;;;;;;109816;1288;22132;-81
2023/07/02 11:41:58;;;;;;;4.70;2.00;;;;;;;;;;109797;1266;22164;-82
2023/07/02 11:44:28;;;;;;;3.80;2.10;;;;;;;;;;109676;1288;22147;-81
2023/07/02 11:46:56;;;;;;;4.50;2.00;;;;;;;;;;109769;1288;22217;-81
2023/07/02 11:49:24;;;;;;;5.60;2.40;;;;;;;;;;109716;1288;22154;-81
2023/07/02 11:51:51;;;;;;;5.40;1.70;;;;;;;;;;109704;1288;22951;-81
2023/07/02 11:54:18;;;;;;;4.10;2.00;;;;;;;;;;109928;1270;22171;-81
2023/07/02 11:56:47;;;;;;;3.80;1.90;;;;;;;;;;109713;1287;22351;-80
2023/07/02 11:59:14;;;;;;;3.70;1.60;;;;;;;;;;109705;1288;22090;-80
2023/07/02 12:01:41;;;;;;;2.90;1.50;;;;;;;;;;110154;1276;22097;-79
2023/07/02 12:04:11;;;;;;;5.30;2.10;;;;;;;;;;110432;1257;22124;-80
2023/07/02 12:06:38;;;;;;;2.80;1.30;;;;;;;;;;110226;1279;22146;-80
2023/07/02 12:09:05;;;;;;;3.90;2.00;;;;;;;;;;110176;1279;22410;-81
2023/07/02 12:11:32;;;;;;;6.20;1.80;;;;;;;;;;110145;1279;22901;-78
2023/07/02 12:13:58;;;;;;;3.80;1.70;;;;;;;;;;110415;1260;22207;-80
2023/07/02 12:16:25;;;;;;;5.50;2.40;;;;;;;;;;110148;1279;22097;-80
2023/07/02 12:18:52;;;;;;;6.10;2.70;;;;;;;;;;110168;1279;22020;-79
2023/07/02 12:21:19;;;;;;;6.60;2.90;;;;;;;;;;110226;1279;22117;-78
2023/07/02 12:23:46;;;;;;;5.90;1.90;;;;;;;;;;110366;1260;22938;-81
2023/07/02 12:26:12;;;;;;;3.40;1.40;;;;;;;;;;110099;1279;22156;-79
2023/07/02 12:28:39;;;;;;;6.10;2.60;;;;;;;;;;110112;1279;22082;-78
2023/07/02 12:31:06;;;;;;;3.60;1.70;;;;;;;;;;110194;1279;22096;-78
2023/07/02 12:33:33;;;;;;;4.70;2.20;;;;;;;;;;110202;1262;22232;-78
2023/07/02 12:36:00;;;;;;;7.10;2.10;;;;;;;;;;110209;1279;22095;-78
2023/07/02 12:38:35;;;;;;;3.90;1.70;;;;;;;;;;110147;1279;22124;-80
2023/07/02 12:41:02;;;;;;;3.70;1.50;;;;;;;;;;110164;1279;22654;-79
2023/07/02 12:43:29;;;;;;;4.50;2.10;;;;;;;;;;110288;1260;22157;-80
2023/07/02 12:45:55;;;;;;;6.50;2.10;;;;;;;;;;110223;1279;22617;-79
2023/07/02 12:48:22;;;;;;;3.90;1.70;;;;;;;;;;110218;1279;22146;-79
2023/07/02 12:50:56;;;;;;;5.10;2.80;;;;;;;;;;110192;1280;22193;-79
2023/07/02 12:53:24;;;;;;;5.00;2.40;;;;;;;;;;110272;1254;22155;-79
2023/07/02 12:55:50;;;;;;;3.60;1.60;;;;;;;;;;110193;1265;22108;-78
2023/07/02 12:58:17;;;;;;;4.00;1.90;;;;;;;;;;110214;1277;22853;-77
2023/07/02 13:00:45;;;;;;;4.10;1.60;;;;;;;;;;110329;1275;22334;-78
2023/07/02 13:03:12;;;;;;;4.20;1.50;;;;;;;;;;110309;1277;21989;-77
2023/07/02 13:05:39;;;;;;;3.10;1.30;;;;;;;;;;110499;1270;22623;-79
2023/07/02 13:08:06;;;;;;;4.10;1.80;;;;;;;;;;110460;1277;21983;-79
2023/07/02 13:10:36;;;;;;;5.10;1.80;;;;;;;;;;110309;1277;22116;-81
2023/07/02 13:13:03;;;;;;;4.50;1.90;;;;;;;;;;110319;1277;22105;-79
2023/07/02 13:15:29;;;;;;;3.20;1.50;;;;;;;;;;110350;1272;23010;-81
2023/07/02 13:17:56;;;;;;;3.50;1.70;;;;;;;;;;110472;1277;22073;-80
2023/07/02 13:20:23;;;;;;;3.50;1.40;;;;;;;;;;110201;1277;22090;-79
2023/07/02 13:22:49;;;;;;;3.50;1.60;;;;;;;;;;110469;1277;22120;-79
2023/07/02 13:25:16;;;;;;;4.10;1.90;;;;;;;;;;110313;1259;22137;-79
2023/07/02 13:27:43;;;;;;;4.00;1.80;;;;;;;;;;110304;1277;22101;-81
2023/07/02 13:30:11;;;;;;;3.40;1.70;;;;;;;;;;110455;1277;22831;-80
2023/07/02 13:32:41;;;;;;;3.90;2.00;;;;;;;;;;110296;1277;22131;-81
2023/07/02 13:35:08;;;;;;;6.70;2.00;;;;;;;;;;110400;1259;22201;-80
2023/07/02 13:37:35;;;;;;;6.30;2.00;;;;;;;;;;110315;1277;22852;-80
2023/07/02 13:40:03;;;;;;;5.00;2.10;;;;;;;;;;110441;1277;22234;-80
2023/07/02 13:42:30;;;;;;;5.40;2.20;;;;;;;;;;110481;1277;22878;-80
2023/07/02 13:44:57;;;;;;;3.80;1.60;;;;;;;;;;110305;1256;22115;-77
2023/07/02 13:47:23;;;;;;;5.70;1.90;;;;;;;;;;110475;1277;22245;-80
2023/07/02 13:49:50;;;;;;;4.00;1.90;;;;;;;;;;110142;1278;22120;-79
2023/07/02 13:52:17;;;;;;;5.10;1.80;;;;;;;;;;110277;1278;21992;-79
2023/07/02 13:54:44;;;;;;;3.40;1.20;;;;;;;;;;110253;1256;22153;-78
2023/07/02 13:57:11;;;;;;;6.30;1.70;;;;;;;;;;110260;1278;22801;-80
2023/07/02 13:59:38;;;;;;;4.40;1.80;;;;;;;;;;110368;1278;22106;-81
2023/07/02 14:02:05;;;;;;;4.00;1.70;;;;;;;;;;110256;1278;22105;-78
2023/07/02 14:04:31;;;;;;;3.20;1.40;;;;;;;;;;110362;1278;22118;-78
2023/07/02 14:06:58;;;;;;;2.40;1.30;;;;;;;;;;110604;1260;22126;-79
2023/07/02 14:09:25;;;;;;;3.80;1.30;;;;;;;;;;110362;1278;22207;-79
2023/07/02 14:11:52;;;;;;;4.00;1.90;;;;;;;;;;110362;1278;22123;-79
2023/07/02 14:14:21;;;;;;;5.00;1.80;;;;;;;;;;110341;1278;22123;-80
2023/07/02 14:16:51;;;;;;;4.00;1.80;;;;;;;;;;110626;1260;22178;-81
2023/07/02 14:19:18;;;;;;;3.90;1.40;;;;;;;;;;110229;1278;22036;-80
2023/07/02 14:21:47;;;;;;;5.50;1.70;;;;;;;;;;110184;1275;22127;-79
2023/07/02 14:24:14;;;;;;;6.10;1.90;;;;;;;;;;110291;1278;21985;-79
2023/07/02 14:26:51;;;;;;;4.70;2.10;;;;;;;;;;110586;1256;22128;-80
2023/07/02 14:29:17;;;;;;;3.80;1.70;;;;;;;;;;110135;1278;22207;-80
2023/07/02 14:31:45;;;;;;;3.50;1.50;;;;;;;;;;110168;1278;22144;-81
2023/07/02 14:34:12;;;;;;;4.80;1.70;;;;;;;;;;110139;1278;22579;-80
2023/07/02 14:36:39;;;;;;;5.90;1.90;;;;;;;;;;110272;1259;22091;-81
2023/07/02 14:39:05;;;;;;;3.50;1.70;;;;;;;;;;110284;1272;22134;-78
2023/07/02 14:41:35;;;;;;;4.00;1.70;;;;;;;;;;110267;1278;22119;-80
2023/07/02 14:44:03;;;;;;;4.30;1.70;;;;;;;;;;110291;1278;22138;-81
2023/07/02 14:46:30;;;;;;;3.40;1.80;;;;;;;;;;110351;1256;22116;-81
2023/07/02 14:48:58;;;;;;;4.40;2.00;;;;;;;;;;110177;1279;21962;-80
2023/07/02 14:51:27;;;;;;;4.10;1.80;;;;;;;;;;110261;1279;22136;-79
2023/07/02 14:54:03;;;;;;;3.70;1.40;;;;;;;;;;110242;1279;22130;-80
2023/07/02 14:56:30;;;;;;;3.20;1.80;;;;;;;;;;110242;1260;22174;-80
2023/07/02 14:58:59;;;;;;;3.30;1.60;;;;;;;;;;110165;1280;22097;-81
2023/07/02 15:01:26;;;;;;;4.40;2.00;;;;;;;;;;110087;1270;22090;-81